Terminal Aerodrome Forecast
Issued by NWS

Home | Current Version | Previous Version | Text Only | Print | Product List | Glossary On
Versions: 1 2 3 4 5 6 7 8 9 10 11 12 13 14 15 16 17 18 19 20
000
FTUS44 KHGX 301305 AAA
TAFCXO
TAF AMD
KCXO 301305Z 3013/3112 VRB03KT 3SM BR FEW015
     FM301400 16004KT P6SM SCT025 BKN150
     FM302200 15006KT P6SM VCSH SCT045 SCT150
     FM310100 VRB03KT P6SM FEW025 SCT250
     FM310600 00000KT 4SM BR FEW015 BKN250
      TEMPO 3108/3112 1SM BR OVC006=

USA.gov is the U.S. government's official web portal to all federal, state and local government web resources and services.